El Dorado International Airport

Airport
ICAO code: 
SKBO
IATA Code: 
BOG
Summary
ICAO Region: 
CARSAM
Territory: 
Location: 
Fontibon, Cundinamarca Department
Serving: 
Bogota
Elevation: 
8361 ft
Coordinates: 
Aerial View: 
4° 42' 5.086" N, 74° 8' 40.189" W
Airport RE: 
Hot and High Operations
Airport WX: 
Lightning
Metar
Observation
SKBO 280100Z VRB02KT 9999 BKN020 14/12 Q1026 NOSIG RMK A3032
Station
Bogota / Eldorado
Date/Time
2021-11-28 01:00:00
Wind speed
02 kts
Lowest cloud amount
broken clouds
Temperature
14°C
Dew point
12°C
Humidity
87%
QNH
1026 hPa
Weather condition
n/a

El Dorado International Airport is an international airport located in Bogotá, Colombia.

Climatology

Sub-Tropical Oceanic climate (Köppen climate classification Cfb).

Runways

Designator Length Width Surface Rops
13L/31R 3800 45 ASP Yes/Yes
13R/31L 3800 45 ASP Yes/Yes
Airport map: 
Aerial View: 

Accidents and Serious Incidents at or in the vicinity of SKBO

SKYbrary Partners:

Safety knowledge contributed by: